sensor_id;sensor_type;location;lat;lon;timestamp;pressure;altitude;pressure_sealevel;temperature;humidity
44988;BME280;35735;52.226;21.254;2023-02-28T00:02:41;101843.44;;;-3.18;96.61
44988;BME280;35735;52.226;21.254;2023-02-28T00:07:43;101833.78;;;-3.29;96.92
44988;BME280;35735;52.226;21.254;2023-02-28T00:12:43;101837.31;;;-3.40;96.77
44988;BME280;35735;52.226;21.254;2023-02-28T00:17:44;101853.22;;;-3.50;97.00
44988;BME280;35735;52.226;21.254;2023-02-28T00:22:48;101851.38;;;-3.51;97.52
44988;BME280;35735;52.226;21.254;2023-02-28T00:27:50;101842.16;;;-3.57;97.46
44988;BME280;35735;52.226;21.254;2023-02-28T00:32:51;101854.84;;;-3.63;97.28
44988;BME280;35735;52.226;21.254;2023-02-28T00:37:51;101856.53;;;-3.75;97.33
44988;BME280;35735;52.226;21.254;2023-02-28T00:42:52;101854.44;;;-3.79;97.88
44988;BME280;35735;52.226;21.254;2023-02-28T00:47:52;101862.31;;;-3.69;98.21
44988;BME280;35735;52.226;21.254;2023-02-28T00:52:53;101860.53;;;-3.80;98.01
44988;BME280;35735;52.226;21.254;2023-02-28T00:57:54;101862.66;;;-3.86;98.22
44988;BME280;35735;52.226;21.254;2023-02-28T01:02:54;101854.03;;;-4.06;98.01
44988;BME280;35735;52.226;21.254;2023-02-28T01:07:55;101856.97;;;-4.13;98.45
44988;BME280;35735;52.226;21.254;2023-02-28T01:12:55;101860.53;;;-4.13;98.71
44988;BME280;35735;52.226;21.254;2023-02-28T01:17:56;101848.53;;;-4.09;98.91
44988;BME280;35735;52.226;21.254;2023-02-28T01:22:57;101854.25;;;-4.25;98.73
44988;BME280;35735;52.226;21.254;2023-02-28T01:27:57;101851.78;;;-4.34;99.01
44988;BME280;35735;52.226;21.254;2023-02-28T01:32:58;101847.84;;;-4.39;99.11
44988;BME280;35735;52.226;21.254;2023-02-28T01:37:59;101857.09;;;-4.44;99.35
44988;BME280;35735;52.226;21.254;2023-02-28T01:43:00;101852.09;;;-4.41;99.55
44988;BME280;35735;52.226;21.254;2023-02-28T01:48:04;101867.09;;;-4.40;99.89
44988;BME280;35735;52.226;21.254;2023-02-28T01:53:09;101862.88;;;-4.48;99.51
44988;BME280;35735;52.226;21.254;2023-02-28T01:58:12;101868.97;;;-4.59;99.45
44988;BME280;35735;52.226;21.254;2023-02-28T02:03:14;101865.72;;;-4.67;99.63
44988;BME280;35735;52.226;21.254;2023-02-28T02:08:19;101865.19;;;-4.73;99.77
44988;BME280;35735;52.226;21.254;2023-02-28T02:19:11;101852.12;;;-4.61;100.00
44988;BME280;35735;52.226;21.254;2023-02-28T02:40:35;101856.75;;;-4.79;100.00
44988;BME280;35735;52.226;21.254;2023-02-28T02:45:50;101862.41;;;-4.75;100.00
44988;BME280;35735;52.226;21.254;2023-02-28T02:50:57;101870.06;;;-4.68;100.00
44988;BME280;35735;52.226;21.254;2023-02-28T02:56:01;101869.00;;;-4.80;100.00
44988;BME280;35735;52.226;21.254;2023-02-28T03:01:04;101878.25;;;-4.95;100.00
44988;BME280;35735;52.226;21.254;2023-02-28T03:06:05;101881.78;;;-4.95;100.00
44988;BME280;35735;52.226;21.254;2023-02-28T03:11:12;101871.78;;;-4.78;100.00
44988;BME280;35735;52.226;21.254;2023-02-28T03:27:38;101876.00;;;-4.91;100.00
44988;BME280;35735;52.226;21.254;2023-02-28T03:32:53;101883.25;;;-4.98;100.00
44988;BME280;35735;52.226;21.254;2023-02-28T03:38:06;101878.25;;;-5.06;100.00
44988;BME280;35735;52.226;21.254;2023-02-28T03:43:15;101886.28;;;-5.14;100.00
44988;BME280;35735;52.226;21.254;2023-02-28T03:48:25;101879.56;;;-5.21;100.00
44988;BME280;35735;52.226;21.254;2023-02-28T03:53:45;101892.34;;;-5.26;100.00
44988;BME280;35735;52.226;21.254;2023-02-28T03:59:26;101881.41;;;-5.20;100.00
44988;BME280;35735;52.226;21.254;2023-02-28T04:04:29;101894.28;;;-5.13;100.00
44988;BME280;35735;52.226;21.254;2023-02-28T04:09:29;101887.47;;;-5.21;100.00
44988;BME280;35735;52.226;21.254;2023-02-28T04:14:30;101883.63;;;-5.25;100.00
44988;BME280;35735;52.226;21.254;2023-02-28T04:19:30;101888.38;;;-5.31;100.00
44988;BME280;35735;52.226;21.254;2023-02-28T04:24:31;101892.69;;;-5.31;100.00
44988;BME280;35735;52.226;21.254;2023-02-28T04:29:31;101893.78;;;-5.40;100.00
44988;BME280;35735;52.226;21.254;2023-02-28T04:34:32;101895.44;;;-5.50;100.00
44988;BME280;35735;52.226;21.254;2023-02-28T04:39:35;101897.94;;;-5.52;100.00
44988;BME280;35735;52.226;21.254;2023-02-28T04:44:36;101894.50;;;-5.61;100.00
44988;BME280;35735;52.226;21.254;2023-02-28T04:49:37;101893.53;;;-5.72;100.00
44988;BME280;35735;52.226;21.254;2023-02-28T04:54:38;101908.41;;;-5.72;100.00
44988;BME280;35735;52.226;21.254;2023-02-28T04:59:38;101894.91;;;-5.56;100.00
44988;BME280;35735;52.226;21.254;2023-02-28T05:04:39;101903.72;;;-5.66;100.00
44988;BME280;35735;52.226;21.254;2023-02-28T05:09:39;101897.16;;;-5.61;100.00
44988;BME280;35735;52.226;21.254;2023-02-28T05:14:40;101907.38;;;-5.64;100.00
44988;BME280;35735;52.226;21.254;2023-02-28T05:19:40;101920.00;;;-5.70;100.00
44988;BME280;35735;52.226;21.254;2023-02-28T05:24:41;101923.19;;;-5.64;100.00
44988;BME280;35735;52.226;21.254;2023-02-28T05:29:41;101941.34;;;-5.57;100.00
44988;BME280;35735;52.226;21.254;2023-02-28T05:34:42;101938.97;;;-5.64;100.00
44988;BME280;35735;52.226;21.254;2023-02-28T05:39:43;101938.56;;;-5.59;100.00
44988;BME280;35735;52.226;21.254;2023-02-28T05:44:43;101943.47;;;-5.53;100.00
44988;BME280;35735;52.226;21.254;2023-02-28T05:49:44;101946.00;;;-5.44;100.00
44988;BME280;35735;52.226;21.254;2023-02-28T05:54:46;101947.97;;;-5.42;100.00
44988;BME280;35735;52.226;21.254;2023-02-28T05:59:46;101954.97;;;-5.32;100.00
44988;BME280;35735;52.226;21.254;2023-02-28T06:04:47;101959.31;;;-5.32;100.00
44988;BME280;35735;52.226;21.254;2023-02-28T06:09:48;101968.72;;;-5.45;100.00
44988;BME280;35735;52.226;21.254;2023-02-28T06:14:48;101966.69;;;-5.28;100.00
44988;BME280;35735;52.226;21.254;2023-02-28T06:19:49;101964.34;;;-5.15;100.00
44988;BME280;35735;52.226;21.254;2023-02-28T06:24:49;101968.56;;;-5.07;100.00
44988;BME280;35735;52.226;21.254;2023-02-28T06:29:53;101968.06;;;-4.92;100.00
44988;BME280;35735;52.226;21.254;2023-02-28T06:34:54;101967.03;;;-4.63;100.00
44988;BME280;35735;52.226;21.254;2023-02-28T06:39:55;101961.59;;;-4.34;100.00
44988;BME280;35735;52.226;21.254;2023-02-28T06:44:56;101957.16;;;-4.03;100.00
44988;BME280;35735;52.226;21.254;2023-02-28T06:49:56;101941.87;;;-3.75;100.00
44988;BME280;35735;52.226;21.254;2023-02-28T06:54:57;101946.41;;;-3.51;100.00
44988;BME280;35735;52.226;21.254;2023-02-28T06:59:59;101933.94;;;-3.20;100.00
44988;BME280;35735;52.226;21.254;2023-02-28T07:05:00;101928.25;;;-2.81;100.00
44988;BME280;35735;52.226;21.254;2023-02-28T07:10:00;101918.09;;;-2.29;100.00
44988;BME280;35735;52.226;21.254;2023-02-28T07:15:01;101912.06;;;-1.79;100.00
44988;BME280;35735;52.226;21.254;2023-02-28T07:20:01;101916.25;;;-1.34;100.00
44988;BME280;35735;52.226;21.254;2023-02-28T07:25:02;101922.38;;;-0.84;100.00
44988;BME280;35735;52.226;21.254;2023-02-28T07:30:03;101914.94;;;-0.38;100.00
44988;BME280;35735;52.226;21.254;2023-02-28T07:35:04;101915.56;;;-0.02;100.00
44988;BME280;35735;52.226;21.254;2023-02-28T07:40:06;101909.84;;;0.32;100.00
44988;BME280;35735;52.226;21.254;2023-02-28T07:45:10;101905.16;;;0.69;100.00
44988;BME280;35735;52.226;21.254;2023-02-28T07:50:13;101911.47;;;1.00;98.00
44988;BME280;35735;52.226;21.254;2023-02-28T07:55:15;101909.34;;;1.22;96.68
44988;BME280;35735;52.226;21.254;2023-02-28T08:00:15;101909.00;;;1.31;95.18
44988;BME280;35735;52.226;21.254;2023-02-28T08:05:16;101913.59;;;1.63;95.38
44988;BME280;35735;52.226;21.254;2023-02-28T08:10:24;101913.41;;;1.90;94.37
44988;BME280;35735;52.226;21.254;2023-02-28T08:15:33;101919.78;;;2.09;92.04
44988;BME280;35735;52.226;21.254;2023-02-28T08:20:33;101918.72;;;1.90;89.97
44988;BME280;35735;52.226;21.254;2023-02-28T08:25:35;101915.66;;;2.14;90.73
44988;BME280;35735;52.226;21.254;2023-02-28T08:30:35;101917.38;;;2.28;89.74
44988;BME280;35735;52.226;21.254;2023-02-28T08:35:36;101911.59;;;2.52;88.99
44988;BME280;35735;52.226;21.254;2023-02-28T08:40:37;101908.37;;;2.74;88.39
44988;BME280;35735;52.226;21.254;2023-02-28T08:45:37;101909.25;;;2.89;87.74
44988;BME280;35735;52.226;21.254;2023-02-28T08:50:38;101917.75;;;3.15;87.18
44988;BME280;35735;52.226;21.254;2023-02-28T08:55:38;101912.06;;;3.25;86.00
44988;BME280;35735;52.226;21.254;2023-02-28T09:00:39;101911.41;;;3.29;85.34
44988;BME280;35735;52.226;21.254;2023-02-28T09:05:39;101911.16;;;3.41;84.73
44988;BME280;35735;52.226;21.254;2023-02-28T09:10:40;101909.97;;;3.52;84.12
44988;BME280;35735;52.226;21.254;2023-02-28T09:15:40;101918.34;;;3.60;83.55
44988;BME280;35735;52.226;21.254;2023-02-28T09:20:42;101917.78;;;3.66;83.06
44988;BME280;35735;52.226;21.254;2023-02-28T09:25:55;101927.41;;;3.80;82.72
44988;BME280;35735;52.226;21.254;2023-02-28T09:30:55;101918.03;;;3.88;81.19
44988;BME280;35735;52.226;21.254;2023-02-28T09:36:01;101919.78;;;3.88;81.34
44988;BME280;35735;52.226;21.254;2023-02-28T09:41:08;101922.84;;;3.96;81.11
44988;BME280;35735;52.226;21.254;2023-02-28T09:46:25;101923.75;;;3.78;79.75
44988;BME280;35735;52.226;21.254;2023-02-28T09:51:45;101919.62;;;3.85;80.86
44988;BME280;35735;52.226;21.254;2023-02-28T09:56:58;101918.41;;;3.78;80.42
44988;BME280;35735;52.226;21.254;2023-02-28T10:08:03;101917.59;;;3.79;79.78
44988;BME280;35735;52.226;21.254;2023-02-28T10:13:35;101926.66;;;3.83;79.10
44988;BME280;35735;52.226;21.254;2023-02-28T10:18:46;101919.88;;;3.89;78.28
44988;BME280;35735;52.226;21.254;2023-02-28T10:23:53;101922.84;;;3.96;79.39
44988;BME280;35735;52.226;21.254;2023-02-28T10:29:00;101916.28;;;4.07;78.92
44988;BME280;35735;52.226;21.254;2023-02-28T10:34:01;101907.87;;;4.17;78.82
44988;BME280;35735;52.226;21.254;2023-02-28T10:44:42;101910.47;;;4.34;77.22
44988;BME280;35735;52.226;21.254;2023-02-28T10:49:50;101917.97;;;4.41;79.34
44988;BME280;35735;52.226;21.254;2023-02-28T10:55:15;101911.37;;;4.52;78.79
44988;BME280;35735;52.226;21.254;2023-02-28T11:00:25;101902.94;;;4.62;78.43
44988;BME280;35735;52.226;21.254;2023-02-28T11:10:32;101888.00;;;4.66;77.30
44988;BME280;35735;52.226;21.254;2023-02-28T11:15:33;101871.16;;;4.69;76.22
44988;BME280;35735;52.226;21.254;2023-02-28T11:20:34;101878.19;;;4.67;76.44
44988;BME280;35735;52.226;21.254;2023-02-28T11:25:37;101868.84;;;4.76;76.26
44988;BME280;35735;52.226;21.254;2023-02-28T11:30:40;101846.97;;;4.85;75.73
44988;BME280;35735;52.226;21.254;2023-02-28T11:35:41;101846.03;;;4.85;74.49
44988;BME280;35735;52.226;21.254;2023-02-28T11:51:53;101831.66;;;4.82;74.85
44988;BME280;35735;52.226;21.254;2023-02-28T11:57:28;101830.41;;;4.94;74.07
44988;BME280;35735;52.226;21.254;2023-02-28T12:03:04;101818.50;;;4.87;73.82
44988;BME280;35735;52.226;21.254;2023-02-28T12:19:39;101808.38;;;4.80;74.20
44988;BME280;35735;52.226;21.254;2023-02-28T12:25:13;101808.16;;;4.75;72.90
44988;BME280;35735;52.226;21.254;2023-02-28T12:30:32;101800.78;;;4.70;73.47
44988;BME280;35735;52.226;21.254;2023-02-28T12:41:12;101787.25;;;4.47;71.93
44988;BME280;35735;52.226;21.254;2023-02-28T12:46:19;101789.34;;;4.35;72.79
44988;BME280;35735;52.226;21.254;2023-02-28T12:51:25;101779.91;;;4.23;72.74
44988;BME280;35735;52.226;21.254;2023-02-28T12:56:35;101786.78;;;4.18;72.77
44988;BME280;35735;52.226;21.254;2023-02-28T13:13:19;101767.97;;;3.97;72.91
44988;BME280;35735;52.226;21.254;2023-02-28T13:18:29;101763.91;;;3.87;72.76
44988;BME280;35735;52.226;21.254;2023-02-28T13:34:15;101743.66;;;3.73;73.57
44988;BME280;35735;52.226;21.254;2023-02-28T13:50:24;101729.59;;;3.77;73.03
44988;BME280;35735;52.226;21.254;2023-02-28T13:55:36;101722.28;;;3.73;72.24
44988;BME280;35735;52.226;21.254;2023-02-28T14:06:26;101716.31;;;3.61;73.43
44988;BME280;35735;52.226;21.254;2023-02-28T14:11:34;101705.53;;;3.58;73.02
44988;BME280;35735;52.226;21.254;2023-02-28T14:16:41;101701.09;;;3.58;73.16
44988;BME280;35735;52.226;21.254;2023-02-28T14:21:59;101696.97;;;3.65;73.16
44988;BME280;35735;52.226;21.254;2023-02-28T14:27:36;101690.09;;;3.70;72.88
44988;BME280;35735;52.226;21.254;2023-02-28T14:33:05;101684.44;;;3.64;72.40
44988;BME280;35735;52.226;21.254;2023-02-28T14:38:25;101687.91;;;3.61;72.37
44988;BME280;35735;52.226;21.254;2023-02-28T14:43:28;101679.19;;;3.65;72.49
44988;BME280;35735;52.226;21.254;2023-02-28T14:48:29;101682.91;;;3.69;72.30
44988;BME280;35735;52.226;21.254;2023-02-28T14:53:35;101673.59;;;3.61;72.05
44988;BME280;35735;52.226;21.254;2023-02-28T14:58:36;101670.91;;;3.59;72.44
44988;BME280;35735;52.226;21.254;2023-02-28T15:03:39;101672.69;;;3.60;72.45
44988;BME280;35735;52.226;21.254;2023-02-28T15:08:40;101672.47;;;3.56;72.73
44988;BME280;35735;52.226;21.254;2023-02-28T15:13:46;101669.94;;;3.59;72.93
44988;BME280;35735;52.226;21.254;2023-02-28T15:18:54;101670.09;;;3.62;72.89
44988;BME280;35735;52.226;21.254;2023-02-28T15:29:20;101668.81;;;3.53;72.97
44988;BME280;35735;52.226;21.254;2023-02-28T15:34:39;101680.22;;;3.49;73.01
44988;BME280;35735;52.226;21.254;2023-02-28T15:39:42;101664.88;;;3.45;73.24
44988;BME280;35735;52.226;21.254;2023-02-28T15:44:44;101664.03;;;3.46;73.50
44988;BME280;35735;52.226;21.254;2023-02-28T15:49:48;101670.44;;;3.50;73.69
44988;BME280;35735;52.226;21.254;2023-02-28T15:54:49;101665.09;;;3.50;73.99
44988;BME280;35735;52.226;21.254;2023-02-28T15:59:54;101670.91;;;3.41;74.16
44988;BME280;35735;52.226;21.254;2023-02-28T16:10:10;101684.16;;;3.22;75.09
44988;BME280;35735;52.226;21.254;2023-02-28T16:15:20;101688.41;;;3.00;75.62
44988;BME280;35735;52.226;21.254;2023-02-28T16:20:24;101679.06;;;2.74;76.35
44988;BME280;35735;52.226;21.254;2023-02-28T16:25:35;101685.88;;;2.51;77.09
44988;BME280;35735;52.226;21.254;2023-02-28T16:30:36;101683.88;;;2.30;78.06
44988;BME280;35735;52.226;21.254;2023-02-28T16:35:37;101683.88;;;2.14;78.98
44988;BME280;35735;52.226;21.254;2023-02-28T16:40:39;101688.06;;;1.92;79.71
44988;BME280;35735;52.226;21.254;2023-02-28T16:45:40;101686.47;;;1.79;80.51
44988;BME280;35735;52.226;21.254;2023-02-28T16:50:42;101689.91;;;1.62;81.32
44988;BME280;35735;52.226;21.254;2023-02-28T16:55:43;101698.50;;;1.41;81.67
44988;BME280;35735;52.226;21.254;2023-02-28T17:00:43;101711.03;;;1.27;82.17
44988;BME280;35735;52.226;21.254;2023-02-28T17:05:44;101701.69;;;1.19;82.25
44988;BME280;35735;52.226;21.254;2023-02-28T17:10:45;101713.06;;;1.02;82.45
44988;BME280;35735;52.226;21.254;2023-02-28T17:15:46;101714.72;;;0.85;82.91
44988;BME280;35735;52.226;21.254;2023-02-28T17:20:47;101725.06;;;0.80;83.99
44988;BME280;35735;52.226;21.254;2023-02-28T17:25:48;101716.75;;;0.74;84.33
44988;BME280;35735;52.226;21.254;2023-02-28T17:30:49;101714.59;;;0.53;84.89
44988;BME280;35735;52.226;21.254;2023-02-28T17:35:49;101726.50;;;0.45;85.49
44988;BME280;35735;52.226;21.254;2023-02-28T17:40:50;101709.00;;;0.34;86.08
44988;BME280;35735;52.226;21.254;2023-02-28T17:45:51;101707.87;;;0.30;86.49
44988;BME280;35735;52.226;21.254;2023-02-28T17:50:52;101708.59;;;0.28;87.01
44988;BME280;35735;52.226;21.254;2023-02-28T17:55:52;101710.84;;;0.22;87.34
44988;BME280;35735;52.226;21.254;2023-02-28T18:00:53;101706.81;;;0.13;87.55
44988;BME280;35735;52.226;21.254;2023-02-28T18:05:54;101699.47;;;0.09;87.91
44988;BME280;35735;52.226;21.254;2023-02-28T18:10:54;101691.13;;;0.03;88.09
44988;BME280;35735;52.226;21.254;2023-02-28T18:15:55;101694.03;;;-0.07;88.47
44988;BME280;35735;52.226;21.254;2023-02-28T18:20:56;101687.91;;;-0.06;88.95
44988;BME280;35735;52.226;21.254;2023-02-28T18:25:56;101666.06;;;-0.15;89.21
44988;BME280;35735;52.226;21.254;2023-02-28T18:30:57;101667.28;;;-0.10;89.67
44988;BME280;35735;52.226;21.254;2023-02-28T18:35:58;101668.22;;;-0.10;89.87
44988;BME280;35735;52.226;21.254;2023-02-28T18:41:01;101664.66;;;-0.24;90.10
44988;BME280;35735;52.226;21.254;2023-02-28T18:46:12;101656.31;;;-0.16;90.64
44988;BME280;35735;52.226;21.254;2023-02-28T18:51:17;101654.47;;;-0.17;90.52
44988;BME280;35735;52.226;21.254;2023-02-28T18:56:24;101657.66;;;-0.23;90.39
44988;BME280;35735;52.226;21.254;2023-02-28T19:01:26;101652.88;;;-0.42;90.61
44988;BME280;35735;52.226;21.254;2023-02-28T19:06:28;101670.66;;;-0.41;91.47
44988;BME280;35735;52.226;21.254;2023-02-28T19:11:30;101681.66;;;-0.35;91.45
44988;BME280;35735;52.226;21.254;2023-02-28T19:16:31;101688.00;;;-0.46;91.21
44988;BME280;35735;52.226;21.254;2023-02-28T19:21:32;101692.31;;;-0.62;91.56
44988;BME280;35735;52.226;21.254;2023-02-28T19:26:32;101692.50;;;-0.72;91.84
44988;BME280;35735;52.226;21.254;2023-02-28T19:31:33;101696.59;;;-0.77;92.15
44988;BME280;35735;52.226;21.254;2023-02-28T19:36:34;101692.34;;;-0.88;92.18
44988;BME280;35735;52.226;21.254;2023-02-28T19:41:34;101696.91;;;-0.86;92.65
44988;BME280;35735;52.226;21.254;2023-02-28T19:46:35;101709.69;;;-0.94;92.82
44988;BME280;35735;52.226;21.254;2023-02-28T19:51:35;101713.81;;;-1.10;92.71
44988;BME280;35735;52.226;21.254;2023-02-28T19:56:36;101707.28;;;-1.16;93.08
44988;BME280;35735;52.226;21.254;2023-02-28T20:01:37;101714.53;;;-1.26;93.33
44988;BME280;35735;52.226;21.254;2023-02-28T20:06:37;101706.25;;;-1.31;93.50
44988;BME280;35735;52.226;21.254;2023-02-28T20:11:38;101708.19;;;-1.42;93.66
44988;BME280;35735;52.226;21.254;2023-02-28T20:16:39;101714.06;;;-1.46;94.37
44988;BME280;35735;52.226;21.254;2023-02-28T20:21:40;101726.88;;;-1.52;94.45
44988;BME280;35735;52.226;21.254;2023-02-28T20:26:41;101714.25;;;-1.56;94.39
44988;BME280;35735;52.226;21.254;2023-02-28T20:31:41;101706.47;;;-1.66;94.62
44988;BME280;35735;52.226;21.254;2023-02-28T20:36:43;101694.81;;;-1.82;94.96
44988;BME280;35735;52.226;21.254;2023-02-28T20:41:43;101687.16;;;-1.77;95.52
44988;BME280;35735;52.226;21.254;2023-02-28T20:46:44;101683.03;;;-1.74;95.68
44988;BME280;35735;52.226;21.254;2023-02-28T20:51:44;101696.62;;;-1.81;95.68
44988;BME280;35735;52.226;21.254;2023-02-28T20:56:45;101704.28;;;-1.97;95.64
44988;BME280;35735;52.226;21.254;2023-02-28T21:01:46;101695.13;;;-2.02;95.81
44988;BME280;35735;52.226;21.254;2023-02-28T21:06:46;101683.91;;;-2.12;95.98
44988;BME280;35735;52.226;21.254;2023-02-28T21:11:47;101682.66;;;-2.17;96.35
44988;BME280;35735;52.226;21.254;2023-02-28T21:16:48;101686.66;;;-2.10;96.73
44988;BME280;35735;52.226;21.254;2023-02-28T21:21:48;101679.41;;;-2.13;96.72
44988;BME280;35735;52.226;21.254;2023-02-28T21:26:49;101682.19;;;-2.23;96.67
44988;BME280;35735;52.226;21.254;2023-02-28T21:31:50;101681.09;;;-2.38;96.57
44988;BME280;35735;52.226;21.254;2023-02-28T21:36:51;101682.50;;;-2.44;96.96
44988;BME280;35735;52.226;21.254;2023-02-28T21:41:52;101678.72;;;-2.47;97.12
44988;BME280;35735;52.226;21.254;2023-02-28T21:46:53;101676.06;;;-2.59;97.28
44988;BME280;35735;52.226;21.254;2023-02-28T21:51:53;101690.50;;;-2.67;97.58
44988;BME280;35735;52.226;21.254;2023-02-28T21:56:54;101690.38;;;-2.69;97.87
44988;BME280;35735;52.226;21.254;2023-02-28T22:01:55;101683.12;;;-2.71;97.79
44988;BME280;35735;52.226;21.254;2023-02-28T22:06:55;101681.06;;;-2.75;97.95
44988;BME280;35735;52.226;21.254;2023-02-28T22:11:56;101676.22;;;-2.81;97.94
44988;BME280;35735;52.226;21.254;2023-02-28T22:16:57;101681.53;;;-2.93;97.97
44988;BME280;35735;52.226;21.254;2023-02-28T22:21:57;101680.16;;;-2.88;98.37
44988;BME280;35735;52.226;21.254;2023-02-28T22:26:58;101676.97;;;-2.95;98.43
44988;BME280;35735;52.226;21.254;2023-02-28T22:31:58;101668.22;;;-3.06;98.44
44988;BME280;35735;52.226;21.254;2023-02-28T22:36:59;101663.28;;;-3.25;98.36
44988;BME280;35735;52.226;21.254;2023-02-28T22:41:59;101658.78;;;-3.26;99.26
44988;BME280;35735;52.226;21.254;2023-02-28T22:47:06;101657.31;;;-3.23;99.64
44988;BME280;35735;52.226;21.254;2023-02-28T22:52:13;101655.38;;;-3.13;99.87
44988;BME280;35735;52.226;21.254;2023-02-28T22:57:13;101662.47;;;-3.12;99.86
44988;BME280;35735;52.226;21.254;2023-02-28T23:02:14;101669.59;;;-3.11;100.00
44988;BME280;35735;52.226;21.254;2023-02-28T23:07:14;101671.88;;;-3.04;100.00
44988;BME280;35735;52.226;21.254;2023-02-28T23:12:16;101686.59;;;-2.96;100.00
44988;BME280;35735;52.226;21.254;2023-02-28T23:17:17;101689.09;;;-3.09;99.90
44988;BME280;35735;52.226;21.254;2023-02-28T23:22:17;101677.16;;;-3.16;100.00
44988;BME280;35735;52.226;21.254;2023-02-28T23:27:37;101669.84;;;-3.20;100.00
44988;BME280;35735;52.226;21.254;2023-02-28T23:32:39;101661.44;;;-3.38;100.00
44988;BME280;35735;52.226;21.254;2023-02-28T23:37:40;101656.63;;;-3.32;100.00
44988;BME280;35735;52.226;21.254;2023-02-28T23:42:40;101657.88;;;-3.27;100.00
44988;BME280;35735;52.226;21.254;2023-02-28T23:47:41;101667.53;;;-3.27;100.00
44988;BME280;35735;52.226;21.254;2023-02-28T23:52:41;101664.53;;;-3.32;100.00
44988;BME280;35735;52.226;21.254;2023-02-28T23:57:42;101668.56;;;-3.37;100.00
